createdAt,value
2023-04-28T00:50:50.200Z,6.38
2023-04-28T01:20:32.484Z,3.57
2023-04-28T01:35:23.868Z,4.72
2023-04-28T02:05:07.990Z,5.36
2023-04-28T02:34:53.852Z,5.60
2023-04-28T03:04:53.161Z,6.00
2023-04-28T04:04:50.576Z,6.21
2023-04-28T05:34:12.084Z,8.12
2023-04-28T05:49:04.145Z,5.81
2023-04-28T06:03:56.924Z,7.43
2023-04-28T06:18:49.814Z,5.97
2023-04-28T06:33:41.342Z,6.96
2023-04-28T06:48:33.050Z,5.08
2023-04-28T07:03:24.884Z,6.90
2023-04-28T07:18:17.370Z,7.87
2023-04-28T07:33:10.731Z,7.57
2023-04-28T07:48:02.827Z,5.97
2023-04-28T08:02:55.857Z,5.67
2023-04-28T08:17:48.324Z,6.19
2023-04-28T08:32:42.906Z,7.17
2023-04-28T08:47:35.052Z,7.24
2023-04-28T09:02:29.269Z,6.44
2023-04-28T09:17:23.414Z,5.52
2023-04-28T09:32:22.246Z,4.77
2023-04-28T09:47:23.952Z,4.91
2023-04-28T10:02:41.921Z,4.70
2023-04-28T10:17:13.575Z,4.70
2023-04-28T10:32:20.964Z,4.29
2023-04-28T10:47:17.063Z,3.88
2023-04-28T11:02:28.710Z,3.97
2023-04-28T11:17:26.715Z,3.77
2023-04-28T11:32:32.399Z,4.48
2023-04-28T11:47:31.077Z,3.63
2023-04-28T12:02:26.127Z,5.78
2023-04-28T12:17:24.700Z,3.44
2023-04-28T12:32:20.697Z,3.28
2023-04-28T12:47:13.630Z,3.19
2023-04-28T13:02:07.014Z,2.67
2023-04-28T13:17:02.388Z,1.78
2023-04-28T13:31:55.775Z,2.41
2023-04-28T13:46:47.914Z,1.64
2023-04-28T14:01:39.435Z,3.65
2023-04-28T14:16:32.203Z,2.49
2023-04-28T14:31:25.122Z,1.70
2023-04-28T14:46:16.637Z,1.60
2023-04-28T15:01:10.634Z,0.96
2023-04-28T15:16:02.729Z,2.16
2023-04-28T15:30:55.528Z,2.56
2023-04-28T15:45:48.610Z,1.63
2023-04-28T16:00:39.888Z,2.29
2023-04-28T16:15:36.469Z,2.29
2023-04-28T16:30:33.190Z,1.36
2023-04-28T17:00:16.990Z,2.78
2023-04-28T17:15:11.436Z,3.58
2023-04-28T17:30:03.128Z,2.42
2023-04-28T17:44:54.178Z,2.61
2023-04-28T18:14:37.646Z,2.44
2023-04-28T18:29:30.984Z,2.30
2023-04-28T18:44:23.915Z,3.57
2023-04-28T18:59:15.433Z,2.91
2023-04-28T19:14:08.365Z,2.93
2023-04-28T19:29:01.367Z,4.22
2023-04-28T19:43:53.859Z,3.61
2023-04-28T19:58:47.283Z,6.12
2023-04-28T20:13:42.100Z,4.37
2023-04-28T20:28:35.348Z,2.87
2023-04-28T20:43:28.318Z,4.42
2023-04-28T20:58:21.061Z,6.28
2023-04-28T21:13:12.960Z,6.81
2023-04-28T21:28:05.705Z,9.21
2023-04-28T21:42:56.763Z,9.44
2023-04-28T21:57:48.461Z,11.68
2023-04-28T22:12:40.333Z,14.07
2023-04-28T22:27:32.385Z,8.68
2023-04-28T22:42:24.845Z,7.21
2023-04-28T22:57:16.553Z,8.40
2023-04-28T23:12:08.735Z,6.11
2023-04-28T23:27:00.022Z,7.18
2023-04-28T23:41:52.120Z,7.04
2023-04-28T23:56:49.605Z,6.72
